sensor_id;sensor_type;location;lat;lon;timestamp;P1;P2;P0
30713;PMS7003;17465;47.934;33.430;2023-04-06T00:00:20;24.00;20.75;10.00
30713;PMS7003;17465;47.934;33.430;2023-04-06T00:02:52;25.50;22.50;11.75
30713;PMS7003;17465;47.934;33.430;2023-04-06T00:05:23;20.25;18.25;10.25
30713;PMS7003;17465;47.934;33.430;2023-04-06T00:07:54;20.00;17.50;10.75
30713;PMS7003;17465;47.934;33.430;2023-04-06T00:10:24;19.50;16.75;9.00
30713;PMS7003;17465;47.934;33.430;2023-04-06T00:13:15;16.75;16.50;9.25
30713;PMS7003;17465;47.934;33.430;2023-04-06T00:15:46;16.50;12.75;9.00
30713;PMS7003;17465;47.934;33.430;2023-04-06T00:18:16;18.50;17.50;9.25
30713;PMS7003;17465;47.934;33.430;2023-04-06T00:20:47;11.50;11.50;6.00
30713;PMS7003;17465;47.934;33.430;2023-04-06T00:23:17;14.75;14.75;9.00
30713;PMS7003;17465;47.934;33.430;2023-04-06T00:25:48;20.50;20.00;13.00
30713;PMS7003;17465;47.934;33.430;2023-04-06T00:28:19;20.50;19.75;10.25
30713;PMS7003;17465;47.934;33.430;2023-04-06T00:30:54;26.75;23.00;12.00
30713;PMS7003;17465;47.934;33.430;2023-04-06T00:33:25;24.25;22.50;12.25
30713;PMS7003;17465;47.934;33.430;2023-04-06T00:35:55;15.50;14.00;10.00
30713;PMS7003;17465;47.934;33.430;2023-04-06T00:38:26;27.25;23.50;12.00
30713;PMS7003;17465;47.934;33.430;2023-04-06T00:40:57;27.00;24.00;12.75
30713;PMS7003;17465;47.934;33.430;2023-04-06T00:43:28;22.00;20.25;9.75
30713;PMS7003;17465;47.934;33.430;2023-04-06T00:45:58;24.25;21.25;10.75
30713;PMS7003;17465;47.934;33.430;2023-04-06T00:48:29;24.50;24.00;14.00
30713;PMS7003;17465;47.934;33.430;2023-04-06T00:51:00;25.00;25.00;12.00
30713;PMS7003;17465;47.934;33.430;2023-04-06T00:53:31;32.00;28.00;16.50
30713;PMS7003;17465;47.934;33.430;2023-04-06T00:56:01;32.25;30.25;13.50
30713;PMS7003;17465;47.934;33.430;2023-04-06T00:58:32;32.75;31.00;16.50
30713;PMS7003;17465;47.934;33.430;2023-04-06T01:01:04;24.00;24.00;11.25
30713;PMS7003;17465;47.934;33.430;2023-04-06T01:03:36;29.50;27.50;12.50
30713;PMS7003;17465;47.934;33.430;2023-04-06T01:06:07;20.75;20.75;8.50
30713;PMS7003;17465;47.934;33.430;2023-04-06T01:08:38;25.25;24.00;11.50
30713;PMS7003;17465;47.934;33.430;2023-04-06T01:11:08;22.25;19.25;11.00
30713;PMS7003;17465;47.934;33.430;2023-04-06T01:13:38;22.50;18.50;11.00
30713;PMS7003;17465;47.934;33.430;2023-04-06T01:16:09;22.00;18.50;9.75
30713;PMS7003;17465;47.934;33.430;2023-04-06T01:18:40;21.50;19.00;9.00
30713;PMS7003;17465;47.934;33.430;2023-04-06T01:21:10;23.75;18.75;9.25
30713;PMS7003;17465;47.934;33.430;2023-04-06T01:23:44;14.25;14.25;5.50
30713;PMS7003;17465;47.934;33.430;2023-04-06T01:26:15;16.75;13.25;6.25
30713;PMS7003;17465;47.934;33.430;2023-04-06T01:28:45;17.75;16.00;6.75
30713;PMS7003;17465;47.934;33.430;2023-04-06T01:31:16;16.00;14.75;7.00
30713;PMS7003;17465;47.934;33.430;2023-04-06T01:33:47;15.50;14.25;4.75
30713;PMS7003;17465;47.934;33.430;2023-04-06T01:36:18;17.25;15.00;9.00
30713;PMS7003;17465;47.934;33.430;2023-04-06T01:38:49;22.00;18.75;8.75
30713;PMS7003;17465;47.934;33.430;2023-04-06T01:41:19;11.50;11.00;4.25
30713;PMS7003;17465;47.934;33.430;2023-04-06T01:43:50;16.25;16.00;9.00
30713;PMS7003;17465;47.934;33.430;2023-04-06T01:46:21;20.25;19.75;9.50
30713;PMS7003;17465;47.934;33.430;2023-04-06T01:48:52;23.50;20.25;10.00
30713;PMS7003;17465;47.934;33.430;2023-04-06T01:51:23;26.25;26.00;12.50
30713;PMS7003;17465;47.934;33.430;2023-04-06T01:53:53;22.25;18.00;8.50
30713;PMS7003;17465;47.934;33.430;2023-04-06T01:56:24;23.75;19.50;10.25
30713;PMS7003;17465;47.934;33.430;2023-04-06T01:58:55;22.75;22.75;10.75
30713;PMS7003;17465;47.934;33.430;2023-04-06T02:01:25;28.25;23.25;11.25
30713;PMS7003;17465;47.934;33.430;2023-04-06T02:03:57;15.50;13.00;3.75
30713;PMS7003;17465;47.934;33.430;2023-04-06T02:06:27;22.50;22.25;14.25
30713;PMS7003;17465;47.934;33.430;2023-04-06T02:08:57;17.00;16.00;7.75
30713;PMS7003;17465;47.934;33.430;2023-04-06T02:11:30;14.75;14.50;7.00
30713;PMS7003;17465;47.934;33.430;2023-04-06T02:14:01;17.75;17.50;9.00
30713;PMS7003;17465;47.934;33.430;2023-04-06T02:16:32;19.75;16.50;8.25
30713;PMS7003;17465;47.934;33.430;2023-04-06T02:19:02;15.50;10.75;5.25
30713;PMS7003;17465;47.934;33.430;2023-04-06T02:21:37;22.75;21.00;9.50
30713;PMS7003;17465;47.934;33.430;2023-04-06T02:24:06;21.75;15.25;7.25
30713;PMS7003;17465;47.934;33.430;2023-04-06T02:26:37;15.25;14.50;7.25
30713;PMS7003;17465;47.934;33.430;2023-04-06T02:29:08;20.00;18.00;9.00
30713;PMS7003;17465;47.934;33.430;2023-04-06T02:31:39;27.50;26.25;11.50
30713;PMS7003;17465;47.934;33.430;2023-04-06T02:34:10;16.50;14.75;9.75
30713;PMS7003;17465;47.934;33.430;2023-04-06T02:36:42;22.00;18.00;8.50
30713;PMS7003;17465;47.934;33.430;2023-04-06T02:39:14;22.25;20.00;9.75
30713;PMS7003;17465;47.934;33.430;2023-04-06T02:41:45;21.00;20.50;11.50
30713;PMS7003;17465;47.934;33.430;2023-04-06T02:44:15;20.00;17.25;6.50
30713;PMS7003;17465;47.934;33.430;2023-04-06T02:46:46;18.25;16.00;6.50
30713;PMS7003;17465;47.934;33.430;2023-04-06T02:49:17;15.25;13.75;4.50
30713;PMS7003;17465;47.934;33.430;2023-04-06T02:51:48;13.25;12.00;3.75
30713;PMS7003;17465;47.934;33.430;2023-04-06T02:54:18;11.50;11.50;6.75
30713;PMS7003;17465;47.934;33.430;2023-04-06T02:56:49;15.00;14.25;6.50
30713;PMS7003;17465;47.934;33.430;2023-04-06T02:59:19;7.50;7.50;4.75
30713;PMS7003;17465;47.934;33.430;2023-04-06T03:01:51;10.00;9.50;4.25
30713;PMS7003;17465;47.934;33.430;2023-04-06T03:04:21;17.25;16.00;10.00
30713;PMS7003;17465;47.934;33.430;2023-04-06T03:06:53;13.00;9.50;5.25
30713;PMS7003;17465;47.934;33.430;2023-04-06T03:09:24;11.25;11.25;5.25
30713;PMS7003;17465;47.934;33.430;2023-04-06T03:11:54;12.50;9.25;6.00
30713;PMS7003;17465;47.934;33.430;2023-04-06T03:14:25;12.00;11.75;5.50
30713;PMS7003;17465;47.934;33.430;2023-04-06T03:17:04;10.00;9.25;6.50
30713;PMS7003;17465;47.934;33.430;2023-04-06T03:19:30;14.00;13.25;8.00
30713;PMS7003;17465;47.934;33.430;2023-04-06T03:22:00;11.75;9.75;5.00
30713;PMS7003;17465;47.934;33.430;2023-04-06T03:24:31;14.00;14.00;9.75
30713;PMS7003;17465;47.934;33.430;2023-04-06T03:27:08;11.50;9.25;7.25
30713;PMS7003;17465;47.934;33.430;2023-04-06T03:29:39;20.00;13.00;7.25
30713;PMS7003;17465;47.934;33.430;2023-04-06T03:32:10;14.75;13.00;7.00
30713;PMS7003;17465;47.934;33.430;2023-04-06T03:34:40;18.00;18.00;8.00
30713;PMS7003;17465;47.934;33.430;2023-04-06T03:37:12;23.50;22.50;10.25
30713;PMS7003;17465;47.934;33.430;2023-04-06T03:39:43;14.50;12.75;7.25
30713;PMS7003;17465;47.934;33.430;2023-04-06T03:42:13;19.50;18.25;7.00
30713;PMS7003;17465;47.934;33.430;2023-04-06T03:44:45;18.00;17.50;9.75
30713;PMS7003;17465;47.934;33.430;2023-04-06T03:47:15;13.75;12.00;4.50
30713;PMS7003;17465;47.934;33.430;2023-04-06T03:49:46;10.50;10.50;2.25
30713;PMS7003;17465;47.934;33.430;2023-04-06T03:52:16;9.75;9.25;6.00
30713;PMS7003;17465;47.934;33.430;2023-04-06T03:54:47;13.00;11.25;6.00
30713;PMS7003;17465;47.934;33.430;2023-04-06T03:57:17;11.75;10.50;7.00
30713;PMS7003;17465;47.934;33.430;2023-04-06T03:59:49;12.00;12.00;6.25
30713;PMS7003;17465;47.934;33.430;2023-04-06T04:02:20;8.00;7.50;5.25
30713;PMS7003;17465;47.934;33.430;2023-04-06T04:04:51;11.50;11.00;6.25
30713;PMS7003;17465;47.934;33.430;2023-04-06T04:07:22;13.25;11.25;6.25
30713;PMS7003;17465;47.934;33.430;2023-04-06T04:09:53;12.25;10.00;6.00
30713;PMS7003;17465;47.934;33.430;2023-04-06T04:12:23;6.50;4.25;2.00
30713;PMS7003;17465;47.934;33.430;2023-04-06T04:14:54;10.50;9.00;5.00
30713;PMS7003;17465;47.934;33.430;2023-04-06T04:17:24;7.00;7.00;4.50
30713;PMS7003;17465;47.934;33.430;2023-04-06T04:19:55;7.75;7.75;6.00
30713;PMS7003;17465;47.934;33.430;2023-04-06T04:22:26;7.50;7.50;4.00
30713;PMS7003;17465;47.934;33.430;2023-04-06T04:25:00;7.00;7.00;3.75
30713;PMS7003;17465;47.934;33.430;2023-04-06T04:27:31;10.00;10.00;6.75
30713;PMS7003;17465;47.934;33.430;2023-04-06T04:30:03;8.25;8.25;4.50
30713;PMS7003;17465;47.934;33.430;2023-04-06T04:32:34;9.00;9.00;5.50
30713;PMS7003;17465;47.934;33.430;2023-04-06T04:35:10;7.00;6.25;2.25
30713;PMS7003;17465;47.934;33.430;2023-04-06T04:37:40;7.50;7.50;3.50
30713;PMS7003;17465;47.934;33.430;2023-04-06T04:40:11;10.00;9.75;6.00
30713;PMS7003;17465;47.934;33.430;2023-04-06T04:42:42;12.00;11.00;7.00
30713;PMS7003;17465;47.934;33.430;2023-04-06T04:45:15;16.00;15.50;6.75
30713;PMS7003;17465;47.934;33.430;2023-04-06T04:47:46;9.50;9.50;6.00
30713;PMS7003;17465;47.934;33.430;2023-04-06T04:50:17;17.75;14.75;7.50
30713;PMS7003;17465;47.934;33.430;2023-04-06T04:52:48;23.00;19.50;10.75
30713;PMS7003;17465;47.934;33.430;2023-04-06T04:55:19;23.75;20.50;11.50
30713;PMS7003;17465;47.934;33.430;2023-04-06T04:57:50;8.75;7.25;6.50
30713;PMS7003;17465;47.934;33.430;2023-04-06T05:00:23;18.00;15.25;7.75
30713;PMS7003;17465;47.934;33.430;2023-04-06T05:02:54;16.25;16.25;9.00
30713;PMS7003;17465;47.934;33.430;2023-04-06T05:05:30;16.25;16.25;7.50
30713;PMS7003;17465;47.934;33.430;2023-04-06T05:08:03;16.50;15.00;9.50
30713;PMS7003;17465;47.934;33.430;2023-04-06T05:10:36;13.50;12.75;7.00
30713;PMS7003;17465;47.934;33.430;2023-04-06T05:13:07;12.75;10.25;4.00
30713;PMS7003;17465;47.934;33.430;2023-04-06T05:15:38;11.00;11.00;4.00
30713;PMS7003;17465;47.934;33.430;2023-04-06T05:18:09;14.50;14.50;8.00
30713;PMS7003;17465;47.934;33.430;2023-04-06T05:20:40;9.75;8.75;2.25
30713;PMS7003;17465;47.934;33.430;2023-04-06T05:23:11;13.25;13.00;7.00
30713;PMS7003;17465;47.934;33.430;2023-04-06T05:25:42;15.50;15.00;8.50
30713;PMS7003;17465;47.934;33.430;2023-04-06T05:28:16;15.25;15.00;9.00
30713;PMS7003;17465;47.934;33.430;2023-04-06T05:30:48;16.50;15.00;7.50
30713;PMS7003;17465;47.934;33.430;2023-04-06T05:33:22;21.00;20.75;13.25
30713;PMS7003;17465;47.934;33.430;2023-04-06T05:35:55;21.25;19.00;9.25
30713;PMS7003;17465;47.934;33.430;2023-04-06T05:38:28;23.25;18.50;9.75
30713;PMS7003;17465;47.934;33.430;2023-04-06T05:41:01;14.75;14.50;5.00
30713;PMS7003;17465;47.934;33.430;2023-04-06T05:43:34;26.25;25.25;13.25
30713;PMS7003;17465;47.934;33.430;2023-04-06T05:46:07;22.75;19.25;10.50
30713;PMS7003;17465;47.934;33.430;2023-04-06T05:48:38;21.50;21.50;11.50
30713;PMS7003;17465;47.934;33.430;2023-04-06T05:51:08;8.25;7.75;3.00
30713;PMS7003;17465;47.934;33.430;2023-04-06T05:53:41;13.25;11.75;3.50
30713;PMS7003;17465;47.934;33.430;2023-04-06T05:56:12;12.25;9.75;6.00
30713;PMS7003;17465;47.934;33.430;2023-04-06T05:58:43;9.25;8.00;3.50
30713;PMS7003;17465;47.934;33.430;2023-04-06T06:01:21;7.75;7.75;3.25
30713;PMS7003;17465;47.934;33.430;2023-04-06T06:03:48;7.75;6.75;3.25
30713;PMS7003;17465;47.934;33.430;2023-04-06T06:06:18;7.75;7.75;3.00
30713;PMS7003;17465;47.934;33.430;2023-04-06T06:08:49;12.25;12.25;5.50
30713;PMS7003;17465;47.934;33.430;2023-04-06T06:11:22;9.00;8.00;2.25
30713;PMS7003;17465;47.934;33.430;2023-04-06T06:13:53;9.25;7.75;3.00
30713;PMS7003;17465;47.934;33.430;2023-04-06T06:16:43;4.00;4.00;2.00
30713;PMS7003;17465;47.934;33.430;2023-04-06T06:19:14;7.50;7.50;2.50
30713;PMS7003;17465;47.934;33.430;2023-04-06T06:21:45;8.50;8.50;4.00
30713;PMS7003;17465;47.934;33.430;2023-04-06T06:24:18;7.00;6.50;3.25
30713;PMS7003;17465;47.934;33.430;2023-04-06T06:26:51;4.00;3.50;1.75
30713;PMS7003;17465;47.934;33.430;2023-04-06T06:29:22;11.00;8.25;4.50
30713;PMS7003;17465;47.934;33.430;2023-04-06T06:31:54;5.75;5.00;2.00
30713;PMS7003;17465;47.934;33.430;2023-04-06T06:34:25;8.00;5.75;2.00
30713;PMS7003;17465;47.934;33.430;2023-04-06T06:36:55;9.00;9.00;3.50
30713;PMS7003;17465;47.934;33.430;2023-04-06T06:39:26;9.25;7.50;2.50
30713;PMS7003;17465;47.934;33.430;2023-04-06T06:41:57;6.75;6.75;2.00
30713;PMS7003;17465;47.934;33.430;2023-04-06T06:44:28;8.25;7.75;4.00
30713;PMS7003;17465;47.934;33.430;2023-04-06T06:47:01;9.25;8.25;2.25
30713;PMS7003;17465;47.934;33.430;2023-04-06T06:49:32;4.00;4.00;2.25
30713;PMS7003;17465;47.934;33.430;2023-04-06T06:52:03;3.25;3.25;1.25
30713;PMS7003;17465;47.934;33.430;2023-04-06T06:54:34;4.50;4.50;1.25
30713;PMS7003;17465;47.934;33.430;2023-04-06T06:57:05;6.00;6.00;2.75
30713;PMS7003;17465;47.934;33.430;2023-04-06T06:59:37;6.75;4.50;2.00
30713;PMS7003;17465;47.934;33.430;2023-04-06T07:02:11;5.25;5.25;2.00
30713;PMS7003;17465;47.934;33.430;2023-04-06T07:04:41;3.50;3.50;1.00
30713;PMS7003;17465;47.934;33.430;2023-04-06T07:07:14;6.00;6.00;2.00
30713;PMS7003;17465;47.934;33.430;2023-04-06T07:09:46;9.00;8.25;2.50
30713;PMS7003;17465;47.934;33.430;2023-04-06T07:12:19;8.75;8.50;2.00
30713;PMS7003;17465;47.934;33.430;2023-04-06T07:14:49;11.25;11.25;6.25
30713;PMS7003;17465;47.934;33.430;2023-04-06T07:17:21;15.75;15.75;8.25
30713;PMS7003;17465;47.934;33.430;2023-04-06T07:19:55;18.50;17.25;8.00
30713;PMS7003;17465;47.934;33.430;2023-04-06T07:22:26;21.75;18.00;9.00
30713;PMS7003;17465;47.934;33.430;2023-04-06T07:25:00;32.00;26.25;13.50
30713;PMS7003;17465;47.934;33.430;2023-04-06T07:27:35;25.50;23.00;11.75
30713;PMS7003;17465;47.934;33.430;2023-04-06T07:30:09;25.25;24.00;10.75
30713;PMS7003;17465;47.934;33.430;2023-04-06T07:32:41;12.75;12.25;6.75
30713;PMS7003;17465;47.934;33.430;2023-04-06T07:35:12;15.00;13.75;7.75
30713;PMS7003;17465;47.934;33.430;2023-04-06T07:37:58;19.50;17.50;9.25
30713;PMS7003;17465;47.934;33.430;2023-04-06T07:40:29;19.75;17.75;8.25
30713;PMS7003;17465;47.934;33.430;2023-04-06T07:43:00;23.00;21.75;12.00
30713;PMS7003;17465;47.934;33.430;2023-04-06T07:45:34;30.50;26.75;14.00
30713;PMS7003;17465;47.934;33.430;2023-04-06T07:48:04;25.25;24.00;14.25
30713;PMS7003;17465;47.934;33.430;2023-04-06T07:50:35;21.50;20.75;11.75
30713;PMS7003;17465;47.934;33.430;2023-04-06T07:53:12;29.50;25.25;13.75
30713;PMS7003;17465;47.934;33.430;2023-04-06T07:55:49;16.75;15.75;6.50
30713;PMS7003;17465;47.934;33.430;2023-04-06T07:58:21;10.25;10.00;3.50
30713;PMS7003;17465;47.934;33.430;2023-04-06T08:00:54;14.75;13.50;6.00
30713;PMS7003;17465;47.934;33.430;2023-04-06T08:03:27;15.50;14.75;7.50
30713;PMS7003;17465;47.934;33.430;2023-04-06T08:05:59;17.00;14.50;8.25
30713;PMS7003;17465;47.934;33.430;2023-04-06T08:08:31;11.75;11.75;6.50
30713;PMS7003;17465;47.934;33.430;2023-04-06T08:11:02;7.50;7.50;3.25
30713;PMS7003;17465;47.934;33.430;2023-04-06T08:13:33;6.25;6.00;1.50
30713;PMS7003;17465;47.934;33.430;2023-04-06T08:16:07;7.75;7.00;3.00
30713;PMS7003;17465;47.934;33.430;2023-04-06T08:18:44;11.25;9.50;3.25
30713;PMS7003;17465;47.934;33.430;2023-04-06T08:21:15;14.00;13.75;5.25
30713;PMS7003;17465;47.934;33.430;2023-04-06T08:23:48;18.00;16.00;9.00
30713;PMS7003;17465;47.934;33.430;2023-04-06T08:26:18;13.75;13.25;8.25
30713;PMS7003;17465;47.934;33.430;2023-04-06T08:28:52;25.00;20.75;9.75
30713;PMS7003;17465;47.934;33.430;2023-04-06T08:31:24;14.25;10.25;5.75
30713;PMS7003;17465;47.934;33.430;2023-04-06T08:33:57;14.00;12.50;6.25
30713;PMS7003;17465;47.934;33.430;2023-04-06T08:36:27;13.25;13.25;7.00
30713;PMS7003;17465;47.934;33.430;2023-04-06T08:38:58;14.50;14.50;8.50
30713;PMS7003;17465;47.934;33.430;2023-04-06T08:41:30;14.50;13.25;7.25
30713;PMS7003;17465;47.934;33.430;2023-04-06T08:44:01;24.25;19.75;9.75
30713;PMS7003;17465;47.934;33.430;2023-04-06T08:46:34;26.25;24.00;15.00
30713;PMS7003;17465;47.934;33.430;2023-04-06T08:49:05;25.50;21.75;12.00
30713;PMS7003;17465;47.934;33.430;2023-04-06T08:51:43;30.75;28.25;17.00
30713;PMS7003;17465;47.934;33.430;2023-04-06T08:54:13;14.00;14.00;7.75
30713;PMS7003;17465;47.934;33.430;2023-04-06T08:56:45;31.25;29.00;16.25
30713;PMS7003;17465;47.934;33.430;2023-04-06T08:59:19;18.25;12.75;6.75
30713;PMS7003;17465;47.934;33.430;2023-04-06T09:01:53;23.50;23.00;14.25
30713;PMS7003;17465;47.934;33.430;2023-04-06T09:04:28;30.00;27.25;15.25
30713;PMS7003;17465;47.934;33.430;2023-04-06T09:07:14;37.00;35.25;19.75
30713;PMS7003;17465;47.934;33.430;2023-04-06T09:09:45;29.25;26.50;12.50
30713;PMS7003;17465;47.934;33.430;2023-04-06T09:12:30;26.75;25.25;14.50
30713;PMS7003;17465;47.934;33.430;2023-04-06T09:15:01;25.25;25.00;13.25
30713;PMS7003;17465;47.934;33.430;2023-04-06T09:17:32;29.25;27.50;15.75
30713;PMS7003;17465;47.934;33.430;2023-04-06T09:20:10;25.00;22.75;11.75
30713;PMS7003;17465;47.934;33.430;2023-04-06T09:23:05;15.00;14.00;4.00
30713;PMS7003;17465;47.934;33.430;2023-04-06T09:25:36;7.00;7.00;3.25
30713;PMS7003;17465;47.934;33.430;2023-04-06T09:28:07;6.00;4.75;3.50
30713;PMS7003;17465;47.934;33.430;2023-04-06T09:30:47;8.00;5.75;3.00
30713;PMS7003;17465;47.934;33.430;2023-04-06T09:33:12;9.75;8.00;2.50
30713;PMS7003;17465;47.934;33.430;2023-04-06T09:35:48;8.25;8.00;4.00
30713;PMS7003;17465;47.934;33.430;2023-04-06T09:38:16;13.00;11.50;7.00
30713;PMS7003;17465;47.934;33.430;2023-04-06T09:40:54;8.75;7.25;3.75
30713;PMS7003;17465;47.934;33.430;2023-04-06T09:43:51;13.50;10.00;5.00
30713;PMS7003;17465;47.934;33.430;2023-04-06T09:46:16;8.25;7.00;3.00
30713;PMS7003;17465;47.934;33.430;2023-04-06T09:48:49;5.75;4.00;2.25
30713;PMS7003;17465;47.934;33.430;2023-04-06T09:51:21;6.00;6.00;4.00
30713;PMS7003;17465;47.934;33.430;2023-04-06T09:53:56;2.00;2.00;1.00
30713;PMS7003;17465;47.934;33.430;2023-04-06T09:56:30;1.25;1.25;0.75
30713;PMS7003;17465;47.934;33.430;2023-04-06T09:59:05;3.75;3.75;2.00
30713;PMS7003;17465;47.934;33.430;2023-04-06T10:01:37;1.00;1.00;1.00
30713;PMS7003;17465;47.934;33.430;2023-04-06T10:07:06;3.00;3.00;2.00
30713;PMS7003;17465;47.934;33.430;2023-04-06T10:09:37;5.25;5.25;1.00
30713;PMS7003;17465;47.934;33.430;2023-04-06T10:12:11;3.00;3.00;1.25
30713;PMS7003;17465;47.934;33.430;2023-04-06T10:14:43;2.50;1.25;0.25
30713;PMS7003;17465;47.934;33.430;2023-04-06T10:17:14;4.00;4.00;2.00
30713;PMS7003;17465;47.934;33.430;2023-04-06T10:20:49;3.50;2.00;1.00
30713;PMS7003;17465;47.934;33.430;2023-04-06T10:22:36;6.25;6.00;3.00
30713;PMS7003;17465;47.934;33.430;2023-04-06T10:25:33;3.75;3.75;2.00
30713;PMS7003;17465;47.934;33.430;2023-04-06T10:28:06;2.00;2.00;0.50
30713;PMS7003;17465;47.934;33.430;2023-04-06T10:30:42;3.75;3.00;2.00
30713;PMS7003;17465;47.934;33.430;2023-04-06T10:33:13;1.00;0.00;0.00
30713;PMS7003;17465;47.934;33.430;2023-04-06T10:35:48;8.00;6.25;2.00
30713;PMS7003;17465;47.934;33.430;2023-04-06T10:38:19;5.75;3.75;1.00
30713;PMS7003;17465;47.934;33.430;2023-04-06T10:40:52;4.00;3.25;1.50
30713;PMS7003;17465;47.934;33.430;2023-04-06T10:43:26;5.00;5.00;2.00
30713;PMS7003;17465;47.934;33.430;2023-04-06T10:45:59;6.25;6.25;3.00
30713;PMS7003;17465;47.934;33.430;2023-04-06T10:51:11;6.00;4.00;2.75
30713;PMS7003;17465;47.934;33.430;2023-04-06T10:53:45;7.25;5.00;1.75
30713;PMS7003;17465;47.934;33.430;2023-04-06T10:56:18;5.75;5.75;3.00
30713;PMS7003;17465;47.934;33.430;2023-04-06T10:59:09;6.00;6.00;3.00
30713;PMS7003;17465;47.934;33.430;2023-04-06T11:01:40;4.00;4.00;2.25
30713;PMS7003;17465;47.934;33.430;2023-04-06T11:04:19;6.25;5.00;2.00
30713;PMS7003;17465;47.934;33.430;2023-04-06T11:06:53;7.00;6.00;3.00
30713;PMS7003;17465;47.934;33.430;2023-04-06T11:09:29;8.25;6.50;3.50
30713;PMS7003;17465;47.934;33.430;2023-04-06T11:11:56;4.00;4.00;2.75
30713;PMS7003;17465;47.934;33.430;2023-04-06T11:14:28;1.00;0.00;0.00
30713;PMS7003;17465;47.934;33.430;2023-04-06T11:17:07;4.00;4.00;1.00
30713;PMS7003;17465;47.934;33.430;2023-04-06T11:19:35;1.75;1.75;1.00
30713;PMS7003;17465;47.934;33.430;2023-04-06T11:22:16;2.00;1.75;1.00
30713;PMS7003;17465;47.934;33.430;2023-04-06T11:24:53;4.00;2.00;0.50
30713;PMS7003;17465;47.934;33.430;2023-04-06T11:27:23;4.00;4.00;3.00
30713;PMS7003;17465;47.934;33.430;2023-04-06T11:29:54;4.25;3.00;2.00
30713;PMS7003;17465;47.934;33.430;2023-04-06T11:32:26;4.00;4.00;2.25
30713;PMS7003;17465;47.934;33.430;2023-04-06T11:34:57;3.00;3.00;1.75
30713;PMS7003;17465;47.934;33.430;2023-04-06T11:37:29;1.00;1.00;0.00
30713;PMS7003;17465;47.934;33.430;2023-04-06T11:40:00;6.75;4.00;2.00
30713;PMS7003;17465;47.934;33.430;2023-04-06T11:42:34;4.00;4.00;2.25
30713;PMS7003;17465;47.934;33.430;2023-04-06T11:45:15;4.25;3.00;1.00
30713;PMS7003;17465;47.934;33.430;2023-04-06T11:47:55;7.75;6.00;4.00
30713;PMS7003;17465;47.934;33.430;2023-04-06T11:50:21;7.75;6.75;3.50
30713;PMS7003;17465;47.934;33.430;2023-04-06T11:52:58;6.75;6.75;3.00
30713;PMS7003;17465;47.934;33.430;2023-04-06T11:55:36;6.00;6.00;2.75
30713;PMS7003;17465;47.934;33.430;2023-04-06T11:58:04;6.50;6.50;3.25
30713;PMS7003;17465;47.934;33.430;2023-04-06T12:00:35;7.00;7.00;2.50
30713;PMS7003;17465;47.934;33.430;2023-04-06T12:03:08;6.25;6.00;2.00
30713;PMS7003;17465;47.934;33.430;2023-04-06T12:05:39;5.75;3.00;0.00
30713;PMS7003;17465;47.934;33.430;2023-04-06T12:08:10;8.00;7.00;3.75
30713;PMS7003;17465;47.934;33.430;2023-04-06T12:10:40;9.50;9.50;7.00
30713;PMS7003;17465;47.934;33.430;2023-04-06T12:13:11;9.50;9.00;4.00
30713;PMS7003;17465;47.934;33.430;2023-04-06T12:15:42;11.75;9.75;6.00
30713;PMS7003;17465;47.934;33.430;2023-04-06T12:18:13;11.00;10.25;6.75
30713;PMS7003;17465;47.934;33.430;2023-04-06T12:20:44;10.75;9.00;6.00
30713;PMS7003;17465;47.934;33.430;2023-04-06T12:23:15;10.50;10.50;7.25
30713;PMS7003;17465;47.934;33.430;2023-04-06T12:25:45;8.00;8.00;4.00
30713;PMS7003;17465;47.934;33.430;2023-04-06T12:28:17;11.75;9.50;6.25
30713;PMS7003;17465;47.934;33.430;2023-04-06T12:30:48;9.25;9.25;7.00
30713;PMS7003;17465;47.934;33.430;2023-04-06T12:33:19;12.00;9.25;7.00
30713;PMS7003;17465;47.934;33.430;2023-04-06T12:35:50;20.25;19.00;13.25
30713;PMS7003;17465;47.934;33.430;2023-04-06T12:38:21;17.50;14.75;9.25
30713;PMS7003;17465;47.934;33.430;2023-04-06T12:40:58;24.25;22.50;14.75
30713;PMS7003;17465;47.934;33.430;2023-04-06T12:43:25;15.00;14.25;9.00
30713;PMS7003;17465;47.934;33.430;2023-04-06T12:46:05;17.75;17.50;12.00
30713;PMS7003;17465;47.934;33.430;2023-04-06T12:48:37;27.50;24.75;14.25
30713;PMS7003;17465;47.934;33.430;2023-04-06T12:51:08;15.00;15.00;8.25
30713;PMS7003;17465;47.934;33.430;2023-04-06T12:53:49;15.25;14.25;9.25
30713;PMS7003;17465;47.934;33.430;2023-04-06T12:56:21;13.25;11.50;7.00
30713;PMS7003;17465;47.934;33.430;2023-04-06T12:58:53;36.25;32.00;21.50
30713;PMS7003;17465;47.934;33.430;2023-04-06T13:01:25;17.25;17.25;10.75
30713;PMS7003;17465;47.934;33.430;2023-04-06T13:03:56;19.25;13.75;8.00
30713;PMS7003;17465;47.934;33.430;2023-04-06T13:06:28;12.50;12.50;6.25
30713;PMS7003;17465;47.934;33.430;2023-04-06T13:08:59;20.25;18.50;12.75
30713;PMS7003;17465;47.934;33.430;2023-04-06T13:11:29;18.00;18.00;8.75
30713;PMS7003;17465;47.934;33.430;2023-04-06T13:14:01;9.25;9.25;3.75
30713;PMS7003;17465;47.934;33.430;2023-04-06T13:16:32;10.00;10.00;7.00
30713;PMS7003;17465;47.934;33.430;2023-04-06T13:19:02;14.75;13.75;6.50
30713;PMS7003;17465;47.934;33.430;2023-04-06T13:21:34;17.25;16.50;7.50
30713;PMS7003;17465;47.934;33.430;2023-04-06T13:24:10;19.75;17.75;8.50
30713;PMS7003;17465;47.934;33.430;2023-04-06T13:26:39;13.25;13.25;7.00
30713;PMS7003;17465;47.934;33.430;2023-04-06T13:29:09;13.00;13.00;6.00
30713;PMS7003;17465;47.934;33.430;2023-04-06T13:31:40;13.75;12.50;6.00
30713;PMS7003;17465;47.934;33.430;2023-04-06T13:34:10;29.50;29.00;17.00
30713;PMS7003;17465;47.934;33.430;2023-04-06T13:36:41;23.75;21.00;12.75
30713;PMS7003;17465;47.934;33.430;2023-04-06T13:39:12;23.25;20.75;13.00
30713;PMS7003;17465;47.934;33.430;2023-04-06T13:41:43;32.25;31.00;17.50
30713;PMS7003;17465;47.934;33.430;2023-04-06T13:44:14;16.25;15.75;9.00
30713;PMS7003;17465;47.934;33.430;2023-04-06T13:46:44;17.50;17.50;8.75
30713;PMS7003;17465;47.934;33.430;2023-04-06T13:49:15;18.75;15.50;11.75
30713;PMS7003;17465;47.934;33.430;2023-04-06T13:51:46;29.50;25.00;15.75
30713;PMS7003;17465;47.934;33.430;2023-04-06T13:54:16;39.50;37.00;23.50
30713;PMS7003;17465;47.934;33.430;2023-04-06T13:56:47;24.25;24.25;14.50
30713;PMS7003;17465;47.934;33.430;2023-04-06T13:59:18;21.75;18.75;10.00
30713;PMS7003;17465;47.934;33.430;2023-04-06T14:01:49;21.50;19.50;10.75
30713;PMS7003;17465;47.934;33.430;2023-04-06T14:04:19;8.50;8.50;6.25
30713;PMS7003;17465;47.934;33.430;2023-04-06T14:06:51;13.25;13.00;6.75
30713;PMS7003;17465;47.934;33.430;2023-04-06T14:09:21;8.25;8.25;3.25
30713;PMS7003;17465;47.934;33.430;2023-04-06T14:11:53;9.00;9.00;6.00
30713;PMS7003;17465;47.934;33.430;2023-04-06T14:14:24;13.75;12.75;7.00
30713;PMS7003;17465;47.934;33.430;2023-04-06T14:16:55;21.25;19.00;12.25
30713;PMS7003;17465;47.934;33.430;2023-04-06T14:19:26;32.25;26.50;17.25
30713;PMS7003;17465;47.934;33.430;2023-04-06T14:21:56;27.75;27.75;17.25
30713;PMS7003;17465;47.934;33.430;2023-04-06T14:24:27;22.75;22.75;16.00